createdAt,value
2022-10-11T00:00:44.064Z,70.56
2022-10-11T00:03:31.054Z,71.04
2022-10-11T00:05:58.501Z,71.06
2022-10-11T00:08:25.751Z,70.66
2022-10-11T00:11:02.128Z,71.15
2022-10-11T00:13:30.056Z,70.91
2022-10-11T00:15:57.980Z,70.91
2022-10-11T00:18:43.262Z,70.63
2022-10-11T00:21:15.089Z,70.59
2022-10-11T00:23:43.817Z,70.59
2022-10-11T00:26:11.965Z,70.22
2022-10-11T00:28:40.057Z,70.29
2022-10-11T00:31:14.970Z,70.34
2022-10-11T00:33:42.783Z,70.15
2022-10-11T00:36:13.764Z,69.80
2022-10-11T00:38:41.494Z,69.76
2022-10-11T00:41:08.893Z,69.53
2022-10-11T00:43:36.792Z,69.46
2022-10-11T00:46:18.972Z,70.14
2022-10-11T00:49:17.912Z,69.63
2022-10-11T00:51:55.364Z,69.39
2022-10-11T00:54:27.318Z,69.70
2022-10-11T00:57:03.071Z,69.41
2022-10-11T00:59:40.453Z,69.70
2022-10-11T01:02:10.372Z,69.19
2022-10-11T01:04:37.755Z,69.12
2022-10-11T01:07:05.160Z,68.99
2022-10-11T01:09:33.460Z,68.71
2022-10-11T01:12:06.896Z,68.47
2022-10-11T01:15:07.255Z,68.29
2022-10-11T01:17:52.689Z,67.81
2022-10-11T01:20:43.293Z,67.67
2022-10-11T01:23:34.721Z,67.40
2022-10-11T01:26:23.679Z,66.36
2022-10-11T01:29:35.268Z,66.05
2022-10-11T01:32:18.758Z,66.09
2022-10-11T01:35:01.312Z,65.28
2022-10-11T01:37:37.691Z,65.17
2022-10-11T01:40:16.184Z,65.17
2022-10-11T01:42:45.478Z,64.99
2022-10-11T01:45:19.875Z,64.61
2022-10-11T01:47:47.340Z,63.94
2022-10-11T01:50:50.789Z,63.94
2022-10-11T01:53:59.366Z,63.48
2022-10-11T01:56:52.356Z,63.24
2022-10-11T01:59:26.126Z,63.29
2022-10-11T02:02:47.166Z,63.15
2022-10-11T02:05:38.045Z,63.05
2022-10-11T02:08:56.138Z,62.38
2022-10-11T02:11:29.886Z,62.28
2022-10-11T02:14:15.505Z,62.29
2022-10-11T02:17:04.064Z,62.52
2022-10-11T02:19:42.754Z,62.61
2022-10-11T02:22:43.222Z,62.15
2022-10-11T02:25:18.919Z,62.08
2022-10-11T02:27:48.856Z,62.04
2022-10-11T02:30:17.278Z,61.94
2022-10-11T02:32:47.569Z,62.02
2022-10-11T02:35:15.648Z,61.83
2022-10-11T02:37:53.225Z,62.02
2022-10-11T02:40:23.071Z,61.89
2022-10-11T02:43:30.243Z,61.54
2022-10-11T02:46:01.415Z,61.74
2022-10-11T02:48:30.622Z,61.45
2022-10-11T02:50:59.100Z,61.60
2022-10-11T02:53:27.287Z,61.49
2022-10-11T02:55:56.040Z,61.83
2022-10-11T02:58:24.781Z,61.83
2022-10-11T03:00:52.059Z,61.67
2022-10-11T03:03:19.577Z,61.75
2022-10-11T03:05:46.966Z,61.83
2022-10-11T03:08:17.034Z,62.11
2022-10-11T03:10:44.578Z,61.79
2022-10-11T03:13:15.967Z,62.07
2022-10-11T03:16:01.914Z,62.84
2022-10-11T03:18:30.758Z,62.09
2022-10-11T03:20:58.148Z,62.43
2022-10-11T03:23:25.362Z,62.30
2022-10-11T03:25:52.615Z,62.35
2022-10-11T03:28:20.879Z,62.95
2022-10-11T03:30:50.148Z,62.96
2022-10-11T03:33:17.784Z,62.65
2022-10-11T03:35:47.529Z,62.99
2022-10-11T03:38:19.752Z,63.24
2022-10-11T03:40:47.630Z,63.14
2022-10-11T03:43:15.008Z,63.46
2022-10-11T03:45:45.244Z,63.57
2022-10-11T03:48:12.760Z,63.55
2022-10-11T03:50:40.401Z,63.74
2022-10-11T03:53:08.881Z,63.67
2022-10-11T03:55:40.319Z,63.54
2022-10-11T03:58:08.679Z,63.85
2022-10-11T04:00:36.878Z,63.95
2022-10-11T04:03:04.380Z,64.20
2022-10-11T04:05:31.724Z,64.15
2022-10-11T04:07:58.902Z,64.51
2022-10-11T04:10:26.375Z,64.21
2022-10-11T04:12:53.593Z,64.63
2022-10-11T04:15:20.902Z,64.52
2022-10-11T04:17:48.271Z,64.66
2022-10-11T04:20:15.583Z,64.51
2022-10-11T04:22:42.971Z,64.87
2022-10-11T04:25:10.607Z,64.86
2022-10-11T04:27:37.830Z,64.91
2022-10-11T04:30:06.908Z,65.01
2022-10-11T04:32:34.738Z,65.28
2022-10-11T04:35:01.913Z,65.14
2022-10-11T04:37:29.129Z,65.18
2022-10-11T04:39:56.474Z,65.75
2022-10-11T04:42:23.633Z,65.75
2022-10-11T04:44:50.878Z,66.55
2022-10-11T04:47:20.344Z,66.88
2022-10-11T04:49:47.562Z,66.86
2022-10-11T04:52:14.887Z,67.58
2022-10-11T04:54:42.226Z,67.78
2022-10-11T04:57:09.512Z,67.99
2022-10-11T04:59:37.200Z,68.49
2022-10-11T05:02:04.717Z,69.04
2022-10-11T05:04:32.151Z,69.73
2022-10-11T05:06:59.383Z,70.75
2022-10-11T05:09:27.122Z,70.73
2022-10-11T05:11:54.320Z,71.45
2022-10-11T05:14:21.483Z,72.85
2022-10-11T05:16:48.842Z,74.17
2022-10-11T05:19:16.077Z,74.16
2022-10-11T05:21:43.271Z,74.47
2022-10-11T05:24:10.986Z,75.93
2022-10-11T05:26:38.206Z,75.96
2022-10-11T05:29:05.506Z,76.55
2022-10-11T05:31:33.233Z,77.81
2022-10-11T05:34:00.485Z,79.42
2022-10-11T05:36:27.701Z,80.50
2022-10-11T05:38:55.255Z,81.02
2022-10-11T05:41:22.607Z,81.61
2022-10-11T05:43:54.791Z,81.51
2022-10-11T05:46:22.429Z,81.51
2022-10-11T05:48:49.623Z,81.52
2022-10-11T05:51:16.826Z,81.69
2022-10-11T05:53:44.232Z,81.73
2022-10-11T05:56:21.928Z,81.90
2022-10-11T05:58:51.224Z,81.93
2022-10-11T06:01:25.587Z,83.06
2022-10-11T06:03:53.613Z,83.08
2022-10-11T06:06:21.709Z,83.45
2022-10-11T06:08:49.463Z,83.44
2022-10-11T06:11:25.310Z,82.93
2022-10-11T06:13:58.227Z,83.49
2022-10-11T06:16:26.873Z,83.42
2022-10-11T06:18:56.197Z,83.17
2022-10-11T06:21:24.947Z,82.79
2022-10-11T06:23:58.263Z,83.31
2022-10-11T06:26:27.665Z,83.66
2022-10-11T06:28:54.909Z,82.86
2022-10-11T06:31:22.719Z,82.84
2022-10-11T06:33:49.907Z,82.65
2022-10-11T06:36:17.899Z,82.77
2022-10-11T06:38:45.630Z,82.18
2022-10-11T06:41:33.337Z,82.75
2022-10-11T06:44:00.767Z,82.60
2022-10-11T06:46:28.400Z,82.34
2022-10-11T06:48:56.513Z,82.11
2022-10-11T06:51:25.416Z,81.97
2022-10-11T06:53:56.837Z,81.46
2022-10-11T06:56:26.777Z,80.04
2022-10-11T06:58:55.487Z,78.28
2022-10-11T07:01:23.995Z,77.52
2022-10-11T07:03:53.995Z,76.67
2022-10-11T07:06:27.615Z,76.08
2022-10-11T07:08:55.647Z,75.70
2022-10-11T07:11:27.199Z,74.99
2022-10-11T07:13:59.432Z,73.42
2022-10-11T07:16:28.980Z,72.12
2022-10-11T07:19:00.905Z,71.04
2022-10-11T07:21:31.502Z,70.68
2022-10-11T07:24:17.041Z,70.27
2022-10-11T07:26:44.548Z,69.96
2022-10-11T07:29:12.775Z,69.55
2022-10-11T07:31:42.525Z,68.86
2022-10-11T07:34:10.900Z,68.79
2022-10-11T07:36:38.133Z,67.91
2022-10-11T07:39:08.317Z,67.30
2022-10-11T07:41:39.689Z,66.63
2022-10-11T07:44:09.085Z,62.73
2022-10-11T07:46:36.593Z,56.92
2022-10-11T07:49:03.974Z,53.32
2022-10-11T07:51:32.864Z,54.53
2022-10-11T07:54:04.726Z,54.43
2022-10-11T07:56:34.344Z,55.67
2022-10-11T07:59:05.542Z,56.68
2022-10-11T08:01:33.514Z,57.86
2022-10-11T08:04:01.000Z,58.70
2022-10-11T08:06:32.643Z,58.39
2022-10-11T08:09:01.349Z,56.42
2022-10-11T08:11:35.949Z,52.34
2022-10-11T08:14:09.093Z,52.33
2022-10-11T08:16:39.343Z,50.99
2022-10-11T08:19:07.722Z,49.11
2022-10-11T08:21:35.101Z,49.46
2022-10-11T08:24:04.587Z,51.25
2022-10-11T08:26:34.099Z,52.99
2022-10-11T08:29:05.339Z,55.65
2022-10-11T08:31:34.902Z,57.89
2022-10-11T08:34:02.831Z,60.35
2022-10-11T08:36:30.047Z,62.75
2022-10-11T08:38:58.390Z,64.39
2022-10-11T08:41:41.005Z,65.08
2022-10-11T08:44:52.155Z,66.70
2022-10-11T08:47:34.053Z,67.19
2022-10-11T08:50:03.789Z,67.90
2022-10-11T08:53:23.989Z,69.31
2022-10-11T08:55:54.253Z,69.14
2022-10-11T08:58:41.755Z,69.84
2022-10-11T09:01:20.551Z,69.80
2022-10-11T09:03:50.008Z,70.28
2022-10-11T09:06:48.971Z,70.61
2022-10-11T09:09:48.924Z,70.67
2022-10-11T09:12:19.151Z,70.76
2022-10-11T09:15:24.279Z,71.38
2022-10-11T09:18:22.122Z,71.05
2022-10-11T09:21:25.087Z,71.53
2022-10-11T09:24:08.402Z,70.69
2022-10-11T09:27:01.554Z,69.11
2022-10-11T09:29:46.153Z,69.24
2022-10-11T09:32:20.942Z,67.56
2022-10-11T09:35:09.423Z,64.16
2022-10-11T09:38:07.631Z,64.75
2022-10-11T09:41:02.149Z,65.17
2022-10-11T09:43:29.443Z,65.69
2022-10-11T09:45:56.904Z,66.31
2022-10-11T09:48:39.119Z,67.77
2022-10-11T09:51:31.655Z,69.87
2022-10-11T09:54:06.535Z,70.51
2022-10-11T09:56:40.796Z,70.28
2022-10-11T09:59:36.245Z,70.71
2022-10-11T10:02:24.051Z,71.23
2022-10-11T10:05:09.409Z,71.94
2022-10-11T10:07:41.102Z,71.98
2022-10-11T10:10:43.576Z,71.66
2022-10-11T10:13:24.382Z,72.59
2022-10-11T10:15:55.963Z,72.73
2022-10-11T10:18:34.486Z,72.62
2022-10-11T10:21:04.367Z,72.50
2022-10-11T10:23:37.427Z,72.06
2022-10-11T10:26:24.692Z,71.61
2022-10-11T10:29:16.871Z,71.25
2022-10-11T10:32:13.334Z,70.69
2022-10-11T10:35:27.585Z,69.72
2022-10-11T10:38:51.204Z,69.73
2022-10-11T10:41:20.019Z,69.72
2022-10-11T10:44:00.791Z,70.35
2022-10-11T10:46:34.193Z,69.80
2022-10-11T10:49:54.219Z,68.84
2022-10-11T10:52:46.367Z,67.48
2022-10-11T10:55:34.765Z,66.69
2022-10-11T10:58:26.583Z,66.74
2022-10-11T11:01:03.047Z,67.58
2022-10-11T11:03:51.950Z,66.74
2022-10-11T11:06:48.347Z,66.84
2022-10-11T11:09:41.203Z,65.81
2022-10-11T11:12:38.083Z,64.74
2022-10-11T11:15:27.175Z,64.89
2022-10-11T11:18:28.987Z,65.19
2022-10-11T11:21:28.411Z,65.39
2022-10-11T11:24:08.506Z,66.23
2022-10-11T11:27:01.769Z,66.82
2022-10-11T11:29:55.695Z,67.09
2022-10-11T11:33:08.533Z,64.05
2022-10-11T11:35:46.068Z,59.79
2022-10-11T11:38:59.730Z,56.92
2022-10-11T11:41:37.002Z,54.94
2022-10-11T11:44:27.306Z,50.76
2022-10-11T11:47:11.340Z,43.46
2022-10-11T11:49:46.575Z,44.90
2022-10-11T11:52:48.259Z,42.57
2022-10-11T11:55:42.370Z,39.94
2022-10-11T11:58:21.893Z,35.18
2022-10-11T12:01:31.491Z,30.66
2022-10-11T12:04:11.677Z,24.00
2022-10-11T12:06:47.878Z,22.69
2022-10-11T12:09:32.636Z,18.67
2022-10-11T12:12:05.215Z,17.42
2022-10-11T12:14:42.642Z,16.38
2022-10-11T12:17:20.977Z,16.20
2022-10-11T12:20:31.731Z,14.38
2022-10-11T12:23:01.137Z,14.36
2022-10-11T12:25:28.769Z,13.84
2022-10-11T12:28:21.676Z,13.54
2022-10-11T12:30:50.874Z,13.36
2022-10-11T12:33:32.680Z,12.56
2022-10-11T12:36:31.599Z,13.06
2022-10-11T12:39:20.825Z,11.87
2022-10-11T12:41:51.655Z,12.11
2022-10-11T12:44:18.799Z,11.85
2022-10-11T12:46:54.748Z,11.13
2022-10-11T12:49:35.583Z,10.95
2022-10-11T12:52:17.946Z,10.33
2022-10-11T12:55:17.826Z,10.43
2022-10-11T12:58:12.461Z,11.34
2022-10-11T13:00:39.881Z,11.27
2022-10-11T13:03:33.651Z,10.92
2022-10-11T13:06:15.321Z,10.34
2022-10-11T13:08:50.307Z,10.47
2022-10-11T13:11:24.341Z,11.28
2022-10-11T13:14:19.122Z,11.58
2022-10-11T13:16:57.815Z,11.27
2022-10-11T13:19:26.990Z,11.15
2022-10-11T13:21:58.999Z,11.17
2022-10-11T13:24:36.307Z,11.27
2022-10-11T13:27:06.235Z,10.84
2022-10-11T13:29:41.070Z,10.64
2022-10-11T13:32:22.415Z,10.40
2022-10-11T13:37:30.671Z,10.31
2022-10-11T13:39:58.857Z,9.72
2022-10-11T13:42:32.823Z,10.26
2022-10-11T13:45:01.204Z,10.13
2022-10-11T13:47:31.791Z,10.52
2022-10-11T13:50:32.105Z,10.24
2022-10-11T13:53:22.108Z,10.27
2022-10-11T13:55:57.358Z,10.05
2022-10-11T13:58:32.671Z,10.52
2022-10-11T14:01:16.655Z,11.11
2022-10-11T14:03:54.972Z,10.88
2022-10-11T14:06:22.513Z,11.28
2022-10-11T14:08:57.031Z,11.28
2022-10-11T14:11:39.954Z,11.52
2022-10-11T14:14:35.756Z,11.68
2022-10-11T14:17:20.314Z,12.39
2022-10-11T14:20:11.382Z,12.99
2022-10-11T14:22:39.321Z,12.69
2022-10-11T14:25:07.099Z,12.70
2022-10-11T14:27:34.677Z,12.54
2022-10-11T14:32:53.821Z,12.76
2022-10-11T14:35:29.949Z,12.46
2022-10-11T14:37:58.339Z,12.49
2022-10-11T14:40:30.491Z,12.53
2022-10-11T14:42:58.091Z,13.02
2022-10-11T14:45:26.326Z,13.22
2022-10-11T14:47:53.681Z,13.40
2022-10-11T14:51:00.974Z,13.39
2022-10-11T14:53:28.324Z,14.93
2022-10-11T14:55:56.305Z,15.35
2022-10-11T14:58:23.545Z,15.70
2022-10-11T15:00:50.803Z,15.78
2022-10-11T15:03:18.292Z,16.11
2022-10-11T15:05:45.577Z,17.42
2022-10-11T15:08:15.044Z,19.22
2022-10-11T15:10:42.779Z,21.02
2022-10-11T15:13:10.121Z,22.40
2022-10-11T15:15:41.103Z,23.37
2022-10-11T15:18:13.663Z,25.68
2022-10-11T15:20:44.645Z,27.31
2022-10-11T15:23:12.634Z,28.24
2022-10-11T15:25:42.271Z,28.70
2022-10-11T15:28:25.979Z,29.27
2022-10-11T15:30:54.174Z,30.12
2022-10-11T15:33:22.410Z,31.20
2022-10-11T15:35:49.647Z,31.51
2022-10-11T15:38:24.053Z,32.41
2022-10-11T15:40:52.466Z,33.24
2022-10-11T15:43:24.684Z,34.73
2022-10-11T15:45:54.339Z,34.29
2022-10-11T15:48:26.368Z,35.56
2022-10-11T15:50:54.927Z,35.91
2022-10-11T15:53:28.548Z,36.30
2022-10-11T15:56:03.269Z,37.62
2022-10-11T15:58:39.014Z,37.45
2022-10-11T16:01:18.806Z,38.37
2022-10-11T16:03:48.623Z,38.36
2022-10-11T16:06:17.980Z,38.23
2022-10-11T16:08:45.829Z,38.96
2022-10-11T16:11:13.304Z,39.78
2022-10-11T16:13:40.706Z,39.91
2022-10-11T16:16:10.096Z,40.75
2022-10-11T16:18:38.202Z,41.38
2022-10-11T16:21:13.274Z,41.00
2022-10-11T16:23:40.559Z,41.42
2022-10-11T16:26:13.588Z,42.07
2022-10-11T16:28:42.114Z,46.15
2022-10-11T16:31:14.673Z,45.24
2022-10-11T16:33:46.059Z,44.97
2022-10-11T16:36:36.616Z,44.97
2022-10-11T16:39:20.053Z,44.79
2022-10-11T16:41:48.037Z,44.96
2022-10-11T16:44:20.294Z,45.47
2022-10-11T16:46:49.028Z,45.87
2022-10-11T16:49:19.822Z,45.85
2022-10-11T16:51:47.059Z,45.91
2022-10-11T16:54:19.293Z,46.02
2022-10-11T16:56:49.285Z,46.35
2022-10-11T16:59:17.246Z,46.58
2022-10-11T17:01:45.251Z,46.95
2022-10-11T17:04:13.346Z,47.41
2022-10-11T17:06:43.907Z,47.92
2022-10-11T17:09:11.900Z,47.78
2022-10-11T17:11:39.332Z,47.90
2022-10-11T17:14:07.753Z,47.96
2022-10-11T17:16:35.732Z,48.76
2022-10-11T17:19:04.117Z,49.56
2022-10-11T17:21:31.443Z,50.03
2022-10-11T17:23:58.957Z,50.58
2022-10-11T17:26:27.687Z,50.73
2022-10-11T17:29:00.430Z,50.70
2022-10-11T17:31:29.728Z,50.71
2022-10-11T17:34:01.355Z,50.64
2022-10-11T17:36:35.799Z,51.07
2022-10-11T17:39:08.275Z,51.59
2022-10-11T17:41:36.000Z,52.19
2022-10-11T17:44:04.415Z,52.03
2022-10-11T17:46:34.941Z,51.97
2022-10-11T17:49:06.711Z,52.51
2022-10-11T17:51:36.570Z,52.56
2022-10-11T17:54:05.163Z,52.83
2022-10-11T17:56:37.640Z,53.04
2022-10-11T17:59:06.271Z,53.26
2022-10-11T18:01:34.046Z,53.33
2022-10-11T18:04:04.984Z,53.64
2022-10-11T18:06:39.659Z,53.63
2022-10-11T18:09:07.263Z,53.85
2022-10-11T18:11:35.119Z,53.71
2022-10-11T18:14:02.513Z,53.55
2022-10-11T18:16:31.727Z,53.77
2022-10-11T18:18:59.208Z,53.92
2022-10-11T18:21:33.634Z,54.23
2022-10-11T18:24:17.056Z,54.97
2022-10-11T18:26:46.143Z,55.77
2022-10-11T18:29:14.349Z,55.61
2022-10-11T18:31:42.431Z,55.62
2022-10-11T18:34:13.061Z,55.57
2022-10-11T18:36:40.567Z,55.73
2022-10-11T18:39:12.545Z,55.73
2022-10-11T18:41:44.607Z,55.73
2022-10-11T18:44:15.723Z,55.95
2022-10-11T18:46:44.258Z,56.43
2022-10-11T18:49:12.925Z,56.39
2022-10-11T18:51:42.325Z,56.53
2022-10-11T18:54:14.090Z,56.79
2022-10-11T18:56:44.556Z,57.17
2022-10-11T18:59:12.767Z,57.33
2022-10-11T19:01:44.466Z,57.94
2022-10-11T19:04:16.117Z,57.91
2022-10-11T19:06:50.675Z,58.48
2022-10-11T19:09:26.172Z,58.61
2022-10-11T19:11:56.507Z,59.60
2022-10-11T19:14:28.796Z,59.21
2022-10-11T19:16:56.892Z,59.15
2022-10-11T19:19:29.216Z,59.12
2022-10-11T19:21:57.448Z,59.15
2022-10-11T19:24:28.410Z,59.15
2022-10-11T19:27:02.029Z,59.14
2022-10-11T19:29:30.976Z,59.27
2022-10-11T19:32:05.572Z,59.40
2022-10-11T19:34:33.413Z,59.27
2022-10-11T19:37:01.381Z,59.37
2022-10-11T19:39:29.633Z,59.37
2022-10-11T19:41:57.229Z,59.41
2022-10-11T19:44:24.591Z,59.47
2022-10-11T19:46:52.968Z,59.33
2022-10-11T19:49:25.897Z,59.48
2022-10-11T19:51:55.558Z,59.69
2022-10-11T19:54:23.689Z,59.86
2022-10-11T19:56:51.141Z,60.25
2022-10-11T19:59:19.739Z,60.19
2022-10-11T20:01:52.294Z,60.61
2022-10-11T20:07:08.822Z,60.83
2022-10-11T20:09:36.688Z,60.95
2022-10-11T20:12:04.152Z,61.35
2022-10-11T20:14:31.607Z,61.55
2022-10-11T20:17:04.838Z,61.36
2022-10-11T20:19:32.292Z,61.66
2022-10-11T20:22:01.002Z,61.94
2022-10-11T20:24:33.121Z,62.35
2022-10-11T20:27:05.544Z,62.33
2022-10-11T20:29:33.176Z,62.38
2022-10-11T20:32:00.695Z,62.58
2022-10-11T20:34:28.411Z,62.79
2022-10-11T20:36:56.702Z,62.75
2022-10-11T20:39:24.254Z,62.75
2022-10-11T20:41:51.858Z,62.39
2022-10-11T20:44:19.049Z,62.62
2022-10-11T20:46:46.260Z,62.51
2022-10-11T20:49:13.823Z,62.54
2022-10-11T20:51:42.740Z,62.65
2022-10-11T20:54:11.127Z,62.74
2022-10-11T20:56:39.401Z,62.74
2022-10-11T20:59:07.858Z,62.57
2022-10-11T21:01:41.262Z,62.54
2022-10-11T21:04:20.111Z,63.31
2022-10-11T21:06:48.794Z,63.20
2022-10-11T21:09:17.224Z,63.00
2022-10-11T21:11:44.765Z,63.72
2022-10-11T21:14:12.593Z,64.08
2022-10-11T21:16:39.935Z,63.76
2022-10-11T21:19:07.597Z,63.50
2022-10-11T21:21:35.019Z,63.39
2022-10-11T21:24:03.460Z,63.56
2022-10-11T21:26:31.115Z,63.54
2022-10-11T21:29:04.098Z,63.54
2022-10-11T21:31:34.275Z,63.48
2022-10-11T21:34:05.158Z,63.38
2022-10-11T21:36:34.021Z,63.81
2022-10-11T21:39:01.249Z,63.92
2022-10-11T21:41:31.579Z,64.01
2022-10-11T21:44:01.025Z,64.37
2022-10-11T21:49:19.217Z,64.87
2022-10-11T21:51:46.503Z,65.18
2022-10-11T21:54:14.077Z,65.13
2022-10-11T21:56:42.076Z,64.86
2022-10-11T21:59:12.305Z,64.99
2022-10-11T22:01:41.913Z,65.11
2022-10-11T22:04:10.107Z,65.21
2022-10-11T22:06:38.480Z,65.58
2022-10-11T22:09:07.710Z,66.57
2022-10-11T22:11:35.835Z,66.77
2022-10-11T22:14:03.516Z,66.82
2022-10-11T22:16:30.752Z,66.52
2022-10-11T22:18:57.980Z,66.45
2022-10-11T22:21:25.620Z,66.52
2022-10-11T22:23:54.858Z,67.59
2022-10-11T22:26:32.345Z,69.41
2022-10-11T22:29:00.973Z,69.71
2022-10-11T22:31:29.397Z,71.13
2022-10-11T22:33:59.948Z,72.00
2022-10-11T22:36:30.576Z,71.49
2022-10-11T22:38:58.750Z,71.10
2022-10-11T22:41:26.245Z,70.98
2022-10-11T22:43:53.664Z,70.56
2022-10-11T22:46:20.961Z,70.42
2022-10-11T22:48:48.209Z,69.90
2022-10-11T22:51:15.725Z,69.77
2022-10-11T22:53:42.999Z,71.07
2022-10-11T22:56:11.297Z,70.96
2022-10-11T22:58:38.972Z,70.40
2022-10-11T23:01:11.368Z,70.49
2022-10-11T23:03:38.938Z,70.26
2022-10-11T23:06:06.856Z,70.07
2022-10-11T23:08:34.361Z,69.77
2022-10-11T23:11:06.958Z,69.68
2022-10-11T23:13:35.765Z,69.74
2022-10-11T23:16:11.398Z,69.40
2022-10-11T23:18:40.049Z,69.24
2022-10-11T23:21:08.196Z,69.11
2022-10-11T23:23:36.343Z,69.63
2022-10-11T23:26:08.799Z,69.51
2022-10-11T23:28:36.737Z,69.82
2022-10-11T23:31:18.448Z,69.37
2022-10-11T23:33:47.315Z,70.53
2022-10-11T23:36:21.006Z,71.12
2022-10-11T23:38:56.758Z,70.84
2022-10-11T23:41:30.052Z,70.67
2022-10-11T23:43:58.643Z,70.06
2022-10-11T23:46:25.975Z,69.89
2022-10-11T23:48:53.255Z,70.15
2022-10-11T23:51:21.238Z,70.52
2022-10-11T23:53:48.435Z,70.50
2022-10-11T23:56:15.566Z,70.35
2022-10-11T23:58:43.032Z,70.04
